<?xml version='1.0' encoding='UTF-8'?>
<gpx xmlns="http://www.topografix.com/GPX/1/1" creator="www.balnam.be" version="1.1" xmlns:xsi="http://www.w3.org/2001/XMLSchema-instance" xsi:schemaLocation="http://www.topografix.com/GPX/1/1 http://www.topografix.com/GPX/1/1/gpx.xsd">
<trk>
<name>nvvog14</name>
<cmt>v</cmt>
<desc>Oignies Chemin n°14 </desc>
<link href="https://chemins.be/oignies/chemin/14"/><trkseg>
<trkpt lat="50.016304" lon="4.633204"><time>2026-05-02T19:09:11Z</time></trkpt>
<trkpt lat="50.015610" lon="4.633772"><time>2026-05-02T19:19:11Z</time></trkpt>
<trkpt lat="50.014844" lon="4.634814"><time>2026-05-02T19:29:11Z</time></trkpt>
<trkpt lat="50.012907" lon="4.636352"><time>2026-05-02T19:39:11Z</time></trkpt>
<trkpt lat="50.012143" lon="4.636194"><time>2026-05-02T19:49:11Z</time></trkpt>
<trkpt lat="50.011297" lon="4.636664"><time>2026-05-02T19:59:11Z</time></trkpt>
<trkpt lat="50.009947" lon="4.637396"><time>2026-05-02T20:09:11Z</time></trkpt>
<trkpt lat="50.007354" lon="4.638971"><time>2026-05-02T20:19:11Z</time></trkpt>
<trkpt lat="50.005438" lon="4.639156"><time>2026-05-02T20:29:11Z</time></trkpt>
<trkpt lat="50.004387" lon="4.638885"><time>2026-05-02T20:39:11Z</time></trkpt>
<trkpt lat="50.000716" lon="4.636395"><time>2026-05-02T20:49:11Z</time></trkpt>
<trkpt lat="50.000150" lon="4.636002"><time>2026-05-02T20:59:11Z</time></trkpt>
<trkpt lat="49.999468" lon="4.635691"><time>2026-05-02T21:09:11Z</time></trkpt>
<trkpt lat="49.997831" lon="4.635640"><time>2026-05-02T21:19:11Z</time></trkpt>
<trkpt lat="49.996851" lon="4.635983"><time>2026-05-02T21:29:11Z</time></trkpt>
<trkpt lat="49.994357" lon="4.637503"><time>2026-05-02T21:39:11Z</time></trkpt>
<trkpt lat="49.992905" lon="4.635431"><time>2026-05-02T21:49:11Z</time></trkpt>
<trkpt lat="49.990664" lon="4.632769"><time>2026-05-02T21:59:11Z</time></trkpt>
<trkpt lat="49.989847" lon="4.632137"><time>2026-05-02T22:09:11Z</time></trkpt>
<trkpt lat="49.989208" lon="4.632398"><time>2026-05-02T22:19:11Z</time></trkpt>
<trkpt lat="49.988740" lon="4.632730"><time>2026-05-02T22:29:11Z</time></trkpt>
<trkpt lat="49.988578" lon="4.632520"><time>2026-05-02T22:39:11Z</time></trkpt>
<trkpt lat="49.988762" lon="4.630806"><time>2026-05-02T22:49:11Z</time></trkpt>
<trkpt lat="49.988073" lon="4.629450"><time>2026-05-02T22:59:11Z</time></trkpt>
<trkpt lat="49.987803" lon="4.629392"><time>2026-05-02T23:09:11Z</time></trkpt>
</trkseg>
</trk>
</gpx>